createdAt,value
2023-04-10T00:00:02.164Z,15.27
2023-04-10T00:02:31.751Z,12.95
2023-04-10T00:04:59.218Z,12.95
2023-04-10T00:07:26.528Z,14.05
2023-04-10T00:09:53.345Z,13.50
2023-04-10T00:12:20.596Z,12.27
2023-04-10T00:14:47.300Z,14.85
2023-04-10T00:17:13.948Z,11.43
2023-04-10T00:19:40.674Z,12.05
2023-04-10T00:22:07.450Z,11.27
2023-04-10T00:24:34.180Z,10.15
2023-04-10T00:27:01.584Z,10.05
2023-04-10T00:29:28.216Z,13.55
2023-04-10T00:31:54.939Z,12.02
2023-04-10T00:34:21.783Z,11.98
2023-04-10T00:36:48.440Z,9.68
2023-04-10T00:39:15.454Z,11.23
2023-04-10T00:41:42.981Z,10.63
2023-04-10T00:44:09.826Z,11.35
2023-04-10T00:46:38.208Z,11.00
2023-04-10T00:49:06.276Z,11.65
2023-04-10T00:51:33.307Z,9.90
2023-04-10T00:54:02.766Z,9.55
2023-04-10T00:56:32.494Z,9.88
2023-04-10T00:58:59.544Z,10.60
2023-04-10T01:01:26.306Z,10.75
2023-04-10T01:03:54.665Z,8.52
2023-04-10T01:06:36.706Z,8.70
2023-04-10T01:09:17.543Z,9.02
2023-04-10T01:12:04.588Z,10.52
2023-04-10T01:14:54.606Z,8.25
2023-04-10T01:17:39.572Z,8.75
2023-04-10T01:20:13.598Z,8.10
2023-04-10T01:22:52.866Z,9.73
2023-04-10T01:25:33.527Z,8.95
2023-04-10T01:28:21.464Z,10.40
2023-04-10T01:30:52.702Z,9.35
2023-04-10T01:33:22.874Z,8.43
2023-04-10T01:35:52.521Z,9.27
2023-04-10T01:38:21.379Z,8.75
2023-04-10T01:40:53.250Z,8.02
2023-04-10T01:43:29.200Z,9.65
2023-04-10T01:45:58.245Z,10.68
2023-04-10T01:48:25.791Z,10.88
2023-04-10T01:50:54.365Z,8.13
2023-04-10T01:53:23.043Z,8.63
2023-04-10T01:55:50.843Z,9.57
2023-04-10T01:58:18.785Z,8.40
2023-04-10T02:00:46.452Z,9.63
2023-04-10T02:03:15.219Z,8.23
2023-04-10T02:06:14.915Z,10.30
2023-04-10T02:08:51.130Z,12.25
2023-04-10T02:11:40.298Z,7.90
2023-04-10T02:14:12.321Z,10.45
2023-04-10T02:16:41.204Z,8.73
2023-04-10T02:19:09.794Z,9.15
2023-04-10T02:21:37.770Z,9.10
2023-04-10T02:24:04.786Z,8.90
2023-04-10T02:26:58.219Z,9.95
2023-04-10T02:29:24.923Z,10.50
2023-04-10T02:31:51.733Z,7.75
2023-04-10T02:34:19.433Z,8.75
2023-04-10T02:36:46.192Z,10.10
2023-04-10T02:39:12.947Z,9.77
2023-04-10T02:41:48.530Z,9.73
2023-04-10T02:44:15.825Z,10.63
2023-04-10T02:46:44.527Z,9.45
2023-04-10T02:49:12.930Z,9.20
2023-04-10T02:51:39.707Z,9.70
2023-04-10T02:54:06.353Z,8.20
2023-04-10T02:56:35.185Z,10.90
2023-04-10T02:59:02.490Z,8.77
2023-04-10T03:01:30.904Z,9.15
2023-04-10T03:04:00.828Z,10.27
2023-04-10T03:06:31.714Z,12.57
2023-04-10T03:08:58.871Z,8.68
2023-04-10T03:11:27.287Z,9.98
2023-04-10T03:13:54.277Z,10.25
2023-04-10T03:16:21.474Z,8.43
2023-04-10T03:18:48.671Z,9.38
2023-04-10T03:21:16.631Z,9.68
2023-04-10T03:23:43.815Z,10.63
2023-04-10T03:26:11.302Z,9.63
2023-04-10T03:28:39.594Z,8.25
2023-04-10T03:31:06.621Z,11.52
2023-04-10T03:33:36.033Z,13.32
2023-04-10T03:36:04.150Z,11.32
2023-04-10T03:38:33.020Z,12.18
2023-04-10T03:40:59.891Z,11.00
2023-04-10T03:43:30.670Z,10.15
2023-04-10T03:45:58.061Z,11.32
2023-04-10T03:48:28.357Z,9.93
2023-04-10T03:50:55.571Z,9.40
2023-04-10T03:53:22.910Z,14.98
2023-04-10T03:55:52.407Z,12.23
2023-04-10T03:58:19.794Z,9.80
2023-04-10T04:00:47.053Z,13.20
2023-04-10T04:03:24.169Z,17.75
2023-04-10T04:06:02.520Z,16.98
2023-04-10T04:08:42.861Z,10.02
2023-04-10T04:11:12.380Z,10.95
2023-04-10T04:13:59.548Z,11.70
2023-04-10T04:16:49.687Z,9.35
2023-04-10T04:19:32.741Z,9.23
2023-04-10T04:22:23.977Z,9.82
2023-04-10T04:25:11.502Z,9.55
2023-04-10T04:27:57.713Z,8.48
2023-04-10T04:30:30.504Z,9.93
2023-04-10T04:33:31.825Z,11.60
2023-04-10T04:36:02.403Z,8.93
2023-04-10T04:38:55.266Z,9.52
2023-04-10T04:41:44.764Z,9.77
2023-04-10T04:44:21.999Z,11.32
2023-04-10T04:47:11.580Z,10.77
2023-04-10T04:50:01.077Z,8.00
2023-04-10T04:53:00.726Z,11.82
2023-04-10T04:55:33.373Z,9.32
2023-04-10T04:58:15.168Z,10.50
2023-04-10T05:00:54.671Z,10.10
2023-04-10T05:03:29.320Z,9.90
2023-04-10T05:06:23.096Z,10.13
2023-04-10T05:09:13.015Z,10.43
2023-04-10T05:12:02.406Z,10.48
2023-04-10T05:14:48.983Z,10.85
2023-04-10T05:17:28.551Z,10.27
2023-04-10T05:20:13.885Z,9.35
2023-04-10T05:22:54.716Z,9.55
2023-04-10T05:25:44.609Z,10.93
2023-04-10T05:28:32.790Z,9.43
2023-04-10T05:31:14.124Z,9.38
2023-04-10T05:33:55.486Z,8.68
2023-04-10T05:36:32.903Z,11.10
2023-04-10T05:39:28.476Z,8.73
2023-04-10T05:42:07.858Z,10.38
2023-04-10T05:44:45.771Z,11.15
2023-04-10T05:47:31.251Z,10.38
2023-04-10T05:50:18.262Z,12.13
2023-04-10T05:53:14.111Z,10.80
2023-04-10T05:55:59.522Z,10.05
2023-04-10T05:58:46.551Z,10.57
2023-04-10T06:01:35.660Z,12.98
2023-04-10T06:04:03.804Z,11.85
2023-04-10T06:06:31.450Z,11.45
2023-04-10T06:08:58.287Z,9.70
2023-04-10T06:11:24.945Z,14.18
2023-04-10T06:13:54.718Z,10.68
2023-04-10T06:16:26.884Z,11.23
2023-04-10T06:18:54.803Z,9.65
2023-04-10T06:21:21.689Z,12.48
2023-04-10T06:23:48.482Z,9.82
2023-04-10T06:26:15.476Z,10.35
2023-04-10T06:28:42.278Z,10.18
2023-04-10T06:31:09.111Z,9.80
2023-04-10T06:33:38.930Z,11.35
2023-04-10T06:36:08.788Z,10.38
2023-04-10T06:41:09.152Z,9.77
2023-04-10T06:43:37.376Z,10.43
2023-04-10T06:46:05.038Z,10.45
2023-04-10T06:48:32.422Z,9.60
2023-04-10T06:51:02.741Z,10.57
2023-04-10T06:53:30.177Z,10.63
2023-04-10T06:55:57.209Z,9.20
2023-04-10T06:58:24.724Z,10.77
2023-04-10T07:00:51.568Z,10.13
2023-04-10T07:03:18.487Z,9.75
2023-04-10T07:05:45.415Z,9.80
2023-04-10T07:08:12.047Z,9.73
2023-04-10T07:10:38.691Z,9.52
2023-04-10T07:13:05.340Z,10.45
2023-04-10T07:15:32.637Z,9.10
2023-04-10T07:17:59.220Z,9.27
2023-04-10T07:20:26.041Z,9.82
2023-04-10T07:22:52.907Z,10.25
2023-04-10T07:25:19.531Z,11.15
2023-04-10T07:27:46.237Z,9.63
2023-04-10T07:30:14.045Z,8.85
2023-04-10T07:32:42.449Z,9.30
2023-04-10T07:35:09.791Z,17.90
2023-04-10T07:37:36.518Z,9.52
2023-04-10T07:40:03.631Z,9.40
2023-04-10T07:42:30.569Z,9.10
2023-04-10T07:44:57.348Z,9.65
2023-04-10T07:47:24.528Z,8.30
2023-04-10T07:49:51.555Z,11.23
2023-04-10T07:52:18.409Z,10.30
2023-04-10T07:54:45.488Z,7.05
2023-04-10T07:57:12.087Z,8.27
2023-04-10T07:59:38.983Z,8.65
2023-04-10T08:02:06.317Z,7.88
2023-04-10T08:04:33.397Z,12.40
2023-04-10T08:07:00.303Z,8.65
2023-04-10T08:09:26.942Z,7.88
2023-04-10T08:11:53.625Z,8.63
2023-04-10T08:14:20.276Z,9.45
2023-04-10T08:16:46.988Z,8.35
2023-04-10T08:19:14.088Z,9.27
2023-04-10T08:21:40.775Z,9.05
2023-04-10T08:24:07.509Z,8.98
2023-04-10T08:26:34.067Z,8.88
2023-04-10T08:29:03.080Z,9.50
2023-04-10T08:31:30.264Z,8.20
2023-04-10T08:34:00.154Z,9.57
2023-04-10T08:36:27.781Z,10.68
2023-04-10T08:38:55.573Z,9.27
2023-04-10T08:41:22.199Z,8.05
2023-04-10T08:43:50.830Z,8.95
2023-04-10T08:46:17.663Z,9.80
2023-04-10T08:49:00.009Z,10.98
2023-04-10T08:51:42.914Z,7.45
2023-04-10T08:54:14.396Z,8.55
2023-04-10T08:56:44.327Z,8.02
2023-04-10T08:59:11.216Z,11.57
2023-04-10T09:01:40.308Z,8.50
2023-04-10T09:04:07.319Z,8.38
2023-04-10T09:06:34.622Z,8.23
2023-04-10T09:12:07.026Z,8.98
2023-04-10T09:14:35.793Z,8.63
2023-04-10T09:17:28.690Z,8.23
2023-04-10T09:19:56.734Z,10.10
2023-04-10T09:22:34.558Z,8.68
2023-04-10T09:25:03.164Z,8.98
2023-04-10T09:27:35.653Z,8.95
2023-04-10T09:30:03.671Z,10.63
2023-04-10T09:32:41.968Z,7.97
2023-04-10T09:35:11.360Z,7.70
2023-04-10T09:37:38.618Z,7.05
2023-04-10T09:40:06.467Z,7.80
2023-04-10T09:42:37.423Z,7.43
2023-04-10T09:45:05.559Z,7.25
2023-04-10T09:47:33.116Z,9.18
2023-04-10T09:50:01.043Z,9.10
2023-04-10T09:52:33.182Z,10.25
2023-04-10T09:55:05.061Z,7.18
2023-04-10T09:57:33.734Z,10.25
2023-04-10T10:00:06.867Z,11.50
2023-04-10T10:02:37.290Z,7.55
2023-04-10T10:05:05.385Z,7.55
2023-04-10T10:07:32.429Z,7.40
2023-04-10T10:10:00.648Z,12.50
2023-04-10T10:12:48.921Z,6.65
2023-04-10T10:15:36.658Z,7.15
2023-04-10T10:18:34.143Z,7.63
2023-04-10T10:21:01.200Z,8.43
2023-04-10T10:23:28.830Z,6.43
2023-04-10T10:25:58.813Z,7.68
2023-04-10T10:28:27.937Z,6.30
2023-04-10T10:30:55.751Z,7.80
2023-04-10T10:33:23.216Z,7.20
2023-04-10T10:35:50.297Z,7.32
2023-04-10T10:38:18.877Z,6.22
2023-04-10T10:40:57.390Z,7.28
2023-04-10T10:43:49.686Z,5.93
2023-04-10T10:46:39.583Z,6.40
2023-04-10T10:49:06.397Z,5.82
2023-04-10T10:51:50.725Z,11.50
2023-04-10T10:54:34.550Z,6.68
2023-04-10T10:59:48.124Z,5.97
2023-04-10T11:02:19.813Z,6.25
2023-04-10T11:04:50.677Z,4.90
2023-04-10T11:07:18.147Z,5.20
2023-04-10T11:09:45.854Z,6.10
2023-04-10T11:12:12.468Z,5.07
2023-04-10T11:14:41.974Z,6.13
2023-04-10T11:17:10.864Z,4.47
2023-04-10T11:20:00.796Z,4.45
2023-04-10T11:22:28.129Z,4.60
2023-04-10T11:25:00.138Z,6.35
2023-04-10T11:27:41.933Z,5.47
2023-04-10T11:30:44.489Z,5.68
2023-04-10T11:33:19.269Z,4.85
2023-04-10T11:35:46.445Z,4.60
2023-04-10T11:38:15.780Z,8.13
2023-04-10T11:41:06.788Z,5.28
2023-04-10T11:43:35.082Z,4.22
2023-04-10T11:46:07.769Z,5.72
2023-04-10T11:48:35.523Z,4.35
2023-04-10T11:51:12.691Z,5.57
2023-04-10T11:53:42.722Z,4.15
2023-04-10T11:56:21.264Z,5.13
2023-04-10T11:58:50.961Z,5.03
2023-04-10T12:01:21.353Z,4.40
2023-04-10T12:03:48.178Z,5.43
2023-04-10T12:06:15.650Z,5.00
2023-04-10T12:08:51.113Z,5.50
2023-04-10T12:11:20.536Z,4.65
2023-04-10T12:13:48.324Z,5.78
2023-04-10T12:16:15.604Z,3.92
2023-04-10T12:18:42.802Z,5.40
2023-04-10T12:21:09.592Z,3.78
2023-04-10T12:23:41.005Z,5.03
2023-04-10T12:26:18.919Z,4.80
2023-04-10T12:28:55.992Z,7.80
2023-04-10T12:31:51.809Z,6.13
2023-04-10T12:34:18.658Z,4.82
2023-04-10T12:36:52.666Z,3.40
2023-04-10T12:39:24.466Z,15.27
2023-04-10T12:41:51.933Z,4.55
2023-04-10T12:44:19.244Z,5.05
2023-04-10T12:46:46.378Z,5.18
2023-04-10T12:49:14.880Z,4.38
2023-04-10T12:51:50.286Z,4.55
2023-04-10T12:54:46.476Z,3.78
2023-04-10T12:57:27.660Z,5.00
2023-04-10T12:59:55.730Z,4.65
2023-04-10T13:02:23.672Z,4.45
2023-04-10T13:04:50.369Z,5.88
2023-04-10T13:07:17.190Z,4.35
2023-04-10T13:09:43.869Z,6.22
2023-04-10T13:12:11.075Z,7.47
2023-04-10T13:14:37.918Z,4.03
2023-04-10T13:17:07.262Z,5.30
2023-04-10T13:19:34.135Z,5.88
2023-04-10T13:22:01.940Z,3.00
2023-04-10T13:24:31.577Z,5.65
2023-04-10T13:27:01.462Z,4.55
2023-04-10T13:29:28.998Z,6.68
2023-04-10T13:31:55.900Z,6.90
2023-04-10T13:34:22.809Z,5.75
2023-04-10T13:36:50.116Z,5.18
2023-04-10T13:39:18.596Z,4.22
2023-04-10T13:41:45.311Z,7.03
2023-04-10T13:44:12.030Z,4.60
2023-04-10T13:46:38.721Z,6.53
2023-04-10T13:49:05.466Z,4.00
2023-04-10T13:51:32.305Z,3.75
2023-04-10T13:54:00.398Z,7.25
2023-04-10T13:56:27.058Z,5.55
2023-04-10T13:58:53.953Z,6.05
2023-04-10T14:01:21.235Z,6.25
2023-04-10T14:03:48.838Z,5.45
2023-04-10T14:06:16.214Z,8.63
2023-04-10T14:08:42.935Z,7.65
2023-04-10T14:11:11.110Z,9.95
2023-04-10T14:13:37.748Z,6.63
2023-04-10T14:16:04.684Z,6.15
2023-04-10T14:18:31.486Z,5.78
2023-04-10T14:20:58.963Z,5.97
2023-04-10T14:23:28.196Z,6.43
2023-04-10T14:26:02.609Z,7.13
2023-04-10T14:28:40.425Z,9.10
2023-04-10T14:31:08.132Z,7.03
2023-04-10T14:33:43.084Z,5.18
2023-04-10T14:36:11.803Z,4.75
2023-04-10T14:38:42.848Z,7.72
2023-04-10T14:41:17.731Z,17.65
2023-04-10T14:46:17.554Z,5.88
2023-04-10T14:48:45.046Z,5.03
2023-04-10T14:51:13.156Z,6.95
2023-04-10T14:53:40.186Z,5.45
2023-04-10T14:56:12.276Z,5.90
2023-04-10T14:58:39.804Z,6.57
2023-04-10T15:01:11.709Z,4.20
2023-04-10T15:03:41.487Z,4.85
2023-04-10T15:06:08.185Z,3.90
2023-04-10T15:08:34.939Z,5.60
2023-04-10T15:11:05.022Z,4.25
2023-04-10T15:13:32.293Z,4.15
2023-04-10T15:16:00.639Z,6.88
2023-04-10T15:18:27.911Z,4.22
2023-04-10T15:20:56.333Z,4.72
2023-04-10T15:23:31.926Z,4.55
2023-04-10T15:26:00.027Z,5.95
2023-04-10T15:28:28.362Z,13.25
2023-04-10T15:30:57.974Z,7.47
2023-04-10T15:33:31.253Z,4.78
2023-04-10T15:36:01.014Z,6.25
2023-04-10T15:38:29.000Z,5.93
2023-04-10T15:40:59.246Z,5.80
2023-04-10T15:43:28.814Z,12.75
2023-04-10T15:45:59.507Z,5.00
2023-04-10T15:48:26.528Z,7.13
2023-04-10T15:50:53.629Z,7.55
2023-04-10T15:53:24.675Z,5.00
2023-04-10T15:55:56.963Z,4.80
2023-04-10T15:58:48.070Z,5.88
2023-04-10T16:01:15.377Z,7.53
2023-04-10T16:03:42.715Z,5.05
2023-04-10T16:06:10.016Z,7.45
2023-04-10T16:08:40.886Z,6.47
2023-04-10T16:11:08.399Z,4.90
2023-04-10T16:13:36.983Z,4.35
2023-04-10T16:16:08.646Z,6.45
2023-04-10T16:18:35.794Z,5.85
2023-04-10T16:21:04.329Z,5.82
2023-04-10T16:23:31.544Z,6.90
2023-04-10T16:25:58.854Z,7.38
2023-04-10T16:28:26.329Z,8.70
2023-04-10T16:30:53.541Z,6.75
2023-04-10T16:33:20.410Z,7.40
2023-04-10T16:35:48.447Z,9.80
2023-04-10T16:38:15.122Z,13.93
2023-04-10T16:40:41.895Z,10.75
2023-04-10T16:43:08.561Z,14.25
2023-04-10T16:45:35.641Z,59.00
2023-04-10T16:48:02.306Z,17.50
2023-04-10T16:50:29.199Z,31.95
2023-04-10T16:52:56.381Z,15.98
2023-04-10T16:55:22.989Z,10.07
2023-04-10T16:57:50.914Z,8.07
2023-04-10T17:00:18.258Z,7.22
2023-04-10T17:02:45.530Z,14.85
2023-04-10T17:05:15.898Z,9.88
2023-04-10T17:07:44.574Z,13.82
2023-04-10T17:10:11.976Z,8.88
2023-04-10T17:12:39.092Z,10.30
2023-04-10T17:15:06.452Z,15.80
2023-04-10T17:17:34.180Z,10.88
2023-04-10T17:20:01.101Z,12.32
2023-04-10T17:22:27.709Z,13.82
2023-04-10T17:24:54.252Z,11.70
2023-04-10T17:27:20.900Z,34.75
2023-04-10T17:29:47.804Z,37.92
2023-04-10T17:32:14.352Z,17.98
2023-04-10T17:34:41.079Z,29.45
2023-04-10T17:37:07.753Z,28.77
2023-04-10T17:39:34.344Z,32.15
2023-04-10T17:42:01.541Z,23.05
2023-04-10T17:44:28.253Z,11.10
2023-04-10T17:46:55.229Z,9.30
2023-04-10T17:49:22.291Z,12.50
2023-04-10T17:51:49.860Z,10.55
2023-04-10T17:54:16.528Z,8.85
2023-04-10T17:56:43.186Z,11.73
2023-04-10T17:59:11.136Z,10.55
2023-04-10T18:01:37.984Z,15.80
2023-04-10T18:04:05.803Z,13.55
2023-04-10T18:06:33.049Z,9.25
2023-04-10T18:09:00.376Z,8.75
2023-04-10T18:11:27.225Z,7.40
2023-04-10T18:13:53.974Z,9.07
2023-04-10T18:16:20.685Z,10.35
2023-04-10T18:18:47.460Z,7.10
2023-04-10T18:21:15.402Z,7.28
2023-04-10T18:23:42.262Z,6.85
2023-04-10T18:26:09.313Z,7.05
2023-04-10T18:28:36.508Z,8.73
2023-04-10T18:31:03.294Z,7.00
2023-04-10T18:33:30.723Z,9.30
2023-04-10T18:35:59.182Z,7.28
2023-04-10T18:38:26.783Z,7.68
2023-04-10T18:40:57.621Z,6.60
2023-04-10T18:43:25.661Z,4.60
2023-04-10T18:45:52.374Z,5.55
2023-04-10T18:48:19.455Z,5.22
2023-04-10T18:50:46.423Z,8.93
2023-04-10T18:53:13.564Z,4.75
2023-04-10T18:55:40.380Z,7.15
2023-04-10T18:58:07.446Z,7.15
2023-04-10T19:00:34.358Z,7.40
2023-04-10T19:03:01.348Z,6.15
2023-04-10T19:05:32.500Z,7.15
2023-04-10T19:08:04.205Z,4.70
2023-04-10T19:10:32.602Z,6.43
2023-04-10T19:12:59.356Z,5.88
2023-04-10T19:15:27.140Z,6.80
2023-04-10T19:17:54.874Z,4.93
2023-04-10T19:20:52.151Z,5.07
2023-04-10T19:23:09.694Z,9.48
2023-04-10T19:25:36.873Z,8.18
2023-04-10T19:28:03.984Z,10.88
2023-04-10T19:30:31.142Z,7.85
2023-04-10T19:32:57.997Z,4.45
2023-04-10T19:35:24.732Z,6.07
2023-04-10T19:37:51.442Z,7.45
2023-04-10T19:40:20.096Z,6.53
2023-04-10T19:42:46.831Z,7.03
2023-04-10T19:45:13.609Z,8.98
2023-04-10T19:47:40.626Z,5.80
2023-04-10T19:50:08.124Z,5.50
2023-04-10T19:52:34.962Z,3.78
2023-04-10T19:55:02.027Z,14.05
2023-04-10T19:57:31.073Z,5.82
2023-04-10T19:59:58.880Z,10.05
2023-04-10T20:02:26.994Z,8.52
2023-04-10T20:04:54.110Z,5.22
2023-04-10T20:07:21.072Z,7.15
2023-04-10T20:09:47.769Z,10.95
2023-04-10T20:12:16.147Z,11.68
2023-04-10T20:14:44.753Z,10.43
2023-04-10T20:17:12.360Z,12.68
2023-04-10T20:19:39.539Z,9.13
2023-04-10T20:22:07.303Z,9.95
2023-04-10T20:24:33.906Z,11.18
2023-04-10T20:27:01.542Z,11.30
2023-04-10T20:29:28.378Z,10.60
2023-04-10T20:31:55.570Z,10.55
2023-04-10T20:34:22.338Z,12.80
2023-04-10T20:36:49.165Z,8.88
2023-04-10T20:39:16.532Z,9.68
2023-04-10T20:41:43.219Z,14.80
2023-04-10T20:44:09.831Z,11.48
2023-04-10T20:46:36.564Z,10.23
2023-04-10T20:49:03.508Z,10.85
2023-04-10T20:51:33.873Z,11.48
2023-04-10T20:54:00.751Z,8.25
2023-04-10T20:56:36.753Z,8.32
2023-04-10T20:59:09.279Z,13.27
2023-04-10T21:01:36.117Z,12.48
2023-04-10T21:04:02.974Z,11.00
2023-04-10T21:06:30.213Z,8.85
2023-04-10T21:08:56.939Z,31.25
2023-04-10T21:11:23.581Z,10.50
2023-04-10T21:13:50.391Z,15.35
2023-04-10T21:16:16.985Z,7.18
2023-04-10T21:18:43.654Z,14.38
2023-04-10T21:21:11.255Z,15.13
2023-04-10T21:23:37.972Z,10.57
2023-04-10T21:26:06.340Z,11.23
2023-04-10T21:28:33.253Z,13.02
2023-04-10T21:31:00.392Z,8.68
2023-04-10T21:33:27.016Z,12.90
2023-04-10T21:35:53.982Z,10.57
2023-04-10T21:38:20.942Z,11.23
2023-04-10T21:40:51.944Z,47.60
2023-04-10T21:43:19.679Z,12.98
2023-04-10T21:45:46.532Z,13.68
2023-04-10T21:48:13.525Z,11.10
2023-04-10T21:50:40.813Z,14.90
2023-04-10T21:53:07.553Z,13.20
2023-04-10T21:55:34.334Z,13.60
2023-04-10T21:58:01.260Z,14.63
2023-04-10T22:00:29.076Z,15.25
2023-04-10T22:02:57.509Z,13.70
2023-04-10T22:05:24.637Z,19.13
2023-04-10T22:07:52.122Z,16.92
2023-04-10T22:10:20.276Z,18.42
2023-04-10T22:12:48.774Z,12.45
2023-04-10T22:15:16.533Z,20.88
2023-04-10T22:17:43.505Z,17.70
2023-04-10T22:20:10.966Z,13.05
2023-04-10T22:22:37.962Z,13.73
2023-04-10T22:25:05.544Z,17.33
2023-04-10T22:27:32.913Z,20.25
2023-04-10T22:30:03.841Z,15.88
2023-04-10T22:32:32.259Z,13.65
2023-04-10T22:35:00.717Z,17.17
2023-04-10T22:37:27.928Z,16.63
2023-04-10T22:39:57.400Z,16.63
2023-04-10T22:42:24.170Z,14.45
2023-04-10T22:44:51.086Z,15.10
2023-04-10T22:47:18.024Z,21.85
2023-04-10T22:49:45.836Z,17.52
2023-04-10T22:52:13.660Z,22.13
2023-04-10T22:54:40.377Z,23.83
2023-04-10T22:57:20.386Z,14.45
2023-04-10T22:59:50.749Z,19.75
2023-04-10T23:02:17.548Z,25.48
2023-04-10T23:04:44.407Z,18.65
2023-04-10T23:07:11.006Z,33.58
2023-04-10T23:09:37.719Z,16.50
2023-04-10T23:12:04.629Z,23.83
2023-04-10T23:14:34.766Z,15.32
2023-04-10T23:17:01.977Z,21.88
2023-04-10T23:19:28.865Z,16.85
2023-04-10T23:21:55.723Z,18.65
2023-04-10T23:24:22.464Z,26.17
2023-04-10T23:26:49.557Z,19.65
2023-04-10T23:29:16.504Z,18.63
2023-04-10T23:31:44.160Z,21.52
2023-04-10T23:34:11.638Z,22.83
2023-04-10T23:36:40.405Z,28.30
2023-04-10T23:39:07.031Z,28.52
2023-04-10T23:41:33.869Z,18.90
2023-04-10T23:44:00.645Z,24.95
2023-04-10T23:46:27.529Z,24.10
2023-04-10T23:48:55.374Z,21.38
2023-04-10T23:51:22.062Z,22.10
2023-04-10T23:53:49.035Z,23.23
2023-04-10T23:56:15.804Z,24.17
2023-04-10T23:58:42.434Z,16.27
